< Typhoon 200621 2006 Season Typhoon 200623 >
Typhoon 200622 (UTOR)
General InformationTrack Information on Google MapsDetailed Wind InformationAccess Analytics MapList of All Images || NewsDisaster Info.WeblogTrackbackTyphoon FrontResourceGoogle EarthGE AnimationAtom FeedGeoJSON
Detalied Best Track (Time Zone = UTC)
Year Month Day Hour Lat. Long. Pressure (hPa) Wind (kt) Class Image Chart
2006 12 7 00 9.1 136.6 1006 0 2 Image Chart
2006 12 7 06 9.1 135.8 1004 0 2 Image Chart
2006 12 7 12 9.4 134.7 1004 0 2 Image Chart
2006 12 7 18 10.3 133.1 998 35 3 Image Chart
2006 12 8 00 10.5 131.5 994 40 3 Image Chart
2006 12 8 06 10.6 130.2 990 45 3 Image Chart
2006 12 8 12 10.6 128.8 980 55 4 Image Chart
2006 12 8 18 10.9 127.9 975 60 4 Image Chart
2006 12 9 00 11.0 126.9 975 60 4 Image Chart
2006 12 9 06 11.3 125.4 975 60 4 Image Chart
2006 12 9 12 11.6 124.1 970 65 5 Image Chart
2006 12 9 18 12.0 122.7 965 70 5 Image Chart
2006 12 10 00 12.2 121.7 955 75 5 Image Chart
2006 12 10 06 12.3 120.7 970 65 5 Image Chart
2006 12 10 12 12.5 120.2 980 60 4 Image Chart
2006 12 10 18 12.8 119.6 985 55 4 Image Chart
2006 12 11 00 13.2 118.5 985 55 4 Image Chart
2006 12 11 06 13.5 117.8 985 55 4 Image Chart
2006 12 11 12 13.8 117.1 980 60 4 Image Chart
2006 12 11 18 14.0 116.5 970 65 5 Image Chart
2006 12 12 00 14.3 115.8 960 70 5 Image Chart
2006 12 12 06 14.8 114.8 955 80 5 Image Chart
2006 12 12 12 15.5 114.0 945 85 5 Image Chart
2006 12 12 18 16.0 113.2 945 85 5 Image Chart
2006 12 13 00 16.5 112.7 955 80 5 Image Chart
2006 12 13 06 16.8 112.4 970 70 5 Image Chart
2006 12 13 12 17.2 112.2 975 65 5 Image Chart
2006 12 13 18 17.6 112.2 985 55 4 Image Chart
2006 12 14 00 17.9 112.5 998 40 3 Image Chart
2006 12 14 06 18.0 113.0 1006 0 2 Image Chart
2006 12 14 12 17.8 113.4 1008 0 2 Image Chart
2006 12 14 18 17.5 113.5 1010 0 2 Image Chart
2006 12 15 00 17.3 113.3 1012 0 2 Image Chart
2006 12 15 06 17.0 113.0 1010 0 2 Image Chart
Japan Meteorological Agency Best Track Data | Correction Date : 2007-01-15
< Typhoon 200621 2006 Season Typhoon 200623 >

Help